sensor_id;sensor_type;location;lat;lon;timestamp;pressure;altitude;pressure_sealevel;temperature;humidity
63281;BME280;49406;51.044;3.766;2023-05-29T00:00:16;102324.01;;;13.48;100.00
63281;BME280;49406;51.044;3.766;2023-05-29T00:02:51;102323.85;;;13.50;100.00
63281;BME280;49406;51.044;3.766;2023-05-29T00:05:26;102331.16;;;13.46;100.00
63281;BME280;49406;51.044;3.766;2023-05-29T00:08:00;102332.98;;;13.42;100.00
63281;BME280;49406;51.044;3.766;2023-05-29T00:10:35;102332.33;;;13.35;100.00
63281;BME280;49406;51.044;3.766;2023-05-29T00:13:10;102333.63;;;13.30;100.00
63281;BME280;49406;51.044;3.766;2023-05-29T00:15:45;102336.15;;;13.25;100.00
63281;BME280;49406;51.044;3.766;2023-05-29T00:18:20;102337.67;;;13.29;100.00
63281;BME280;49406;51.044;3.766;2023-05-29T00:20:53;102337.98;;;13.28;100.00
63281;BME280;49406;51.044;3.766;2023-05-29T00:23:28;102339.02;;;13.27;100.00
63281;BME280;49406;51.044;3.766;2023-05-29T00:26:03;102336.44;;;13.22;100.00
63281;BME280;49406;51.044;3.766;2023-05-29T00:28:38;102332.54;;;13.13;100.00
63281;BME280;49406;51.044;3.766;2023-05-29T00:31:12;102328.49;;;13.12;100.00
63281;BME280;49406;51.044;3.766;2023-05-29T00:33:47;102335.05;;;13.15;100.00
63281;BME280;49406;51.044;3.766;2023-05-29T00:36:22;102338.63;;;13.10;100.00
63281;BME280;49406;51.044;3.766;2023-05-29T00:38:57;102336.70;;;13.03;100.00
63281;BME280;49406;51.044;3.766;2023-05-29T00:41:32;102346.81;;;12.99;100.00
63281;BME280;49406;51.044;3.766;2023-05-29T00:44:06;102341.89;;;12.99;100.00
63281;BME280;49406;51.044;3.766;2023-05-29T00:46:41;102338.08;;;13.01;100.00
63281;BME280;49406;51.044;3.766;2023-05-29T00:49:17;102338.70;;;12.97;100.00
63281;BME280;49406;51.044;3.766;2023-05-29T00:51:53;102334.58;;;12.93;100.00
63281;BME280;49406;51.044;3.766;2023-05-29T00:54:30;102337.36;;;12.84;100.00
63281;BME280;49406;51.044;3.766;2023-05-29T00:57:06;102339.94;;;12.82;100.00
63281;BME280;49406;51.044;3.766;2023-05-29T00:59:40;102340.89;;;12.85;100.00
63281;BME280;49406;51.044;3.766;2023-05-29T01:02:16;102342.63;;;12.85;100.00
63281;BME280;49406;51.044;3.766;2023-05-29T01:04:51;102342.55;;;12.82;100.00
63281;BME280;49406;51.044;3.766;2023-05-29T01:07:27;102349.95;;;12.75;100.00
63281;BME280;49406;51.044;3.766;2023-05-29T01:10:02;102346.08;;;12.67;100.00
63281;BME280;49406;51.044;3.766;2023-05-29T01:12:43;102348.06;;;12.70;100.00
63281;BME280;49406;51.044;3.766;2023-05-29T01:15:32;102343.11;;;12.68;100.00
63281;BME280;49406;51.044;3.766;2023-05-29T01:18:18;102348.33;;;12.66;100.00
63281;BME280;49406;51.044;3.766;2023-05-29T01:21:02;102353.35;;;12.56;100.00
63281;BME280;49406;51.044;3.766;2023-05-29T01:24:06;102346.31;;;12.47;100.00
63281;BME280;49406;51.044;3.766;2023-05-29T01:26:48;102342.33;;;12.42;100.00
63281;BME280;49406;51.044;3.766;2023-05-29T01:29:29;102352.63;;;12.47;100.00
63281;BME280;49406;51.044;3.766;2023-05-29T01:32:04;102348.13;;;12.43;100.00
63281;BME280;49406;51.044;3.766;2023-05-29T01:34:39;102350.49;;;12.32;100.00
63281;BME280;49406;51.044;3.766;2023-05-29T01:37:14;102348.92;;;12.26;100.00
63281;BME280;49406;51.044;3.766;2023-05-29T01:39:49;102353.73;;;12.28;100.00
63281;BME280;49406;51.044;3.766;2023-05-29T01:42:23;102359.63;;;12.26;100.00
63281;BME280;49406;51.044;3.766;2023-05-29T01:44:59;102361.05;;;12.20;100.00
63281;BME280;49406;51.044;3.766;2023-05-29T01:47:34;102361.02;;;12.12;100.00
63281;BME280;49406;51.044;3.766;2023-05-29T01:50:10;102360.16;;;12.06;100.00
63281;BME280;49406;51.044;3.766;2023-05-29T01:52:46;102359.41;;;12.11;100.00
63281;BME280;49406;51.044;3.766;2023-05-29T01:55:21;102359.70;;;12.09;100.00
63281;BME280;49406;51.044;3.766;2023-05-29T01:57:56;102362.23;;;12.05;100.00
63281;BME280;49406;51.044;3.766;2023-05-29T02:00:31;102364.48;;;11.97;100.00
63281;BME280;49406;51.044;3.766;2023-05-29T02:03:06;102366.05;;;11.90;100.00
63281;BME280;49406;51.044;3.766;2023-05-29T02:05:41;102368.55;;;11.92;100.00
63281;BME280;49406;51.044;3.766;2023-05-29T02:08:15;102371.23;;;11.93;100.00
63281;BME280;49406;51.044;3.766;2023-05-29T02:10:50;102366.70;;;11.89;100.00
63281;BME280;49406;51.044;3.766;2023-05-29T02:13:25;102368.59;;;11.81;100.00
63281;BME280;49406;51.044;3.766;2023-05-29T02:15:59;102374.45;;;11.78;100.00
63281;BME280;49406;51.044;3.766;2023-05-29T02:18:34;102370.15;;;11.74;100.00
63281;BME280;49406;51.044;3.766;2023-05-29T02:21:09;102367.06;;;11.77;100.00
63281;BME280;49406;51.044;3.766;2023-05-29T02:23:43;102371.81;;;11.77;100.00
63281;BME280;49406;51.044;3.766;2023-05-29T02:26:18;102370.56;;;11.71;100.00
63281;BME280;49406;51.044;3.766;2023-05-29T02:28:52;102367.02;;;11.63;100.00
63281;BME280;49406;51.044;3.766;2023-05-29T02:31:27;102367.86;;;11.56;100.00
63281;BME280;49406;51.044;3.766;2023-05-29T02:34:02;102364.94;;;11.58;100.00
63281;BME280;49406;51.044;3.766;2023-05-29T02:36:36;102372.84;;;11.64;100.00
63281;BME280;49406;51.044;3.766;2023-05-29T02:39:11;102373.55;;;11.58;100.00
63281;BME280;49406;51.044;3.766;2023-05-29T02:41:46;102376.94;;;11.48;100.00
63281;BME280;49406;51.044;3.766;2023-05-29T02:44:21;102374.85;;;11.43;100.00
63281;BME280;49406;51.044;3.766;2023-05-29T02:46:55;102369.92;;;11.36;100.00
63281;BME280;49406;51.044;3.766;2023-05-29T02:49:30;102372.87;;;11.41;100.00
63281;BME280;49406;51.044;3.766;2023-05-29T02:52:05;102366.63;;;11.42;100.00
63281;BME280;49406;51.044;3.766;2023-05-29T02:54:40;102370.30;;;11.37;100.00
63281;BME280;49406;51.044;3.766;2023-05-29T02:57:15;102371.73;;;11.32;100.00
63281;BME280;49406;51.044;3.766;2023-05-29T02:59:50;102373.23;;;11.29;100.00
63281;BME280;49406;51.044;3.766;2023-05-29T03:02:25;102376.94;;;11.31;100.00
63281;BME280;49406;51.044;3.766;2023-05-29T03:04:59;102379.49;;;11.34;100.00
63281;BME280;49406;51.044;3.766;2023-05-29T03:07:34;102382.20;;;11.31;100.00
63281;BME280;49406;51.044;3.766;2023-05-29T03:10:10;102380.91;;;11.23;100.00
63281;BME280;49406;51.044;3.766;2023-05-29T03:12:45;102386.66;;;11.16;100.00
63281;BME280;49406;51.044;3.766;2023-05-29T03:15:20;102388.65;;;11.12;100.00
63281;BME280;49406;51.044;3.766;2023-05-29T03:17:54;102383.34;;;11.17;100.00
63281;BME280;49406;51.044;3.766;2023-05-29T03:20:29;102386.31;;;11.16;100.00
63281;BME280;49406;51.044;3.766;2023-05-29T03:23:04;102386.91;;;11.07;100.00
63281;BME280;49406;51.044;3.766;2023-05-29T03:25:39;102383.29;;;11.03;100.00
63281;BME280;49406;51.044;3.766;2023-05-29T03:28:13;102383.16;;;10.99;100.00
63281;BME280;49406;51.044;3.766;2023-05-29T03:30:48;102380.79;;;11.02;100.00
63281;BME280;49406;51.044;3.766;2023-05-29T03:33:25;102374.16;;;11.03;100.00
63281;BME280;49406;51.044;3.766;2023-05-29T03:35:59;102372.46;;;10.98;100.00
63281;BME280;49406;51.044;3.766;2023-05-29T03:38:34;102372.04;;;10.91;100.00
63281;BME280;49406;51.044;3.766;2023-05-29T03:41:08;102371.88;;;10.86;100.00
63281;BME280;49406;51.044;3.766;2023-05-29T03:43:43;102376.29;;;10.81;100.00
63281;BME280;49406;51.044;3.766;2023-05-29T03:46:18;102377.42;;;10.84;100.00
63281;BME280;49406;51.044;3.766;2023-05-29T03:48:52;102387.13;;;10.86;100.00
63281;BME280;49406;51.044;3.766;2023-05-29T03:51:27;102392.65;;;10.84;100.00
63281;BME280;49406;51.044;3.766;2023-05-29T03:54:01;102393.38;;;10.79;100.00
63281;BME280;49406;51.044;3.766;2023-05-29T03:56:37;102394.95;;;10.74;100.00
63281;BME280;49406;51.044;3.766;2023-05-29T03:59:10;102399.79;;;10.72;100.00
63281;BME280;49406;51.044;3.766;2023-05-29T04:01:45;102405.80;;;10.74;100.00
63281;BME280;49406;51.044;3.766;2023-05-29T04:04:20;102406.98;;;10.77;100.00
63281;BME280;49406;51.044;3.766;2023-05-29T04:06:55;102417.50;;;10.78;100.00
63281;BME280;49406;51.044;3.766;2023-05-29T04:09:30;102422.46;;;10.75;100.00
63281;BME280;49406;51.044;3.766;2023-05-29T04:12:05;102417.83;;;10.73;100.00
63281;BME280;49406;51.044;3.766;2023-05-29T04:14:40;102421.13;;;10.72;100.00
63281;BME280;49406;51.044;3.766;2023-05-29T04:17:15;102429.52;;;10.82;100.00
63281;BME280;49406;51.044;3.766;2023-05-29T04:19:49;102427.14;;;10.85;100.00
63281;BME280;49406;51.044;3.766;2023-05-29T04:22:24;102427.74;;;10.81;100.00
63281;BME280;49406;51.044;3.766;2023-05-29T04:24:59;102426.95;;;10.78;100.00
63281;BME280;49406;51.044;3.766;2023-05-29T04:27:33;102424.13;;;10.83;100.00
63281;BME280;49406;51.044;3.766;2023-05-29T04:30:11;102424.51;;;10.90;100.00
63281;BME280;49406;51.044;3.766;2023-05-29T04:32:45;102429.71;;;10.93;100.00
63281;BME280;49406;51.044;3.766;2023-05-29T04:35:21;102433.24;;;10.90;100.00
63281;BME280;49406;51.044;3.766;2023-05-29T04:37:58;102434.99;;;10.90;100.00
63281;BME280;49406;51.044;3.766;2023-05-29T04:40:32;102435.34;;;11.00;100.00
63281;BME280;49406;51.044;3.766;2023-05-29T04:43:09;102447.41;;;11.05;100.00
63281;BME280;49406;51.044;3.766;2023-05-29T04:45:44;102447.00;;;11.04;100.00
63281;BME280;49406;51.044;3.766;2023-05-29T04:48:19;102446.56;;;11.01;100.00
63281;BME280;49406;51.044;3.766;2023-05-29T04:50:53;102444.90;;;11.04;100.00
63281;BME280;49406;51.044;3.766;2023-05-29T04:53:28;102453.47;;;11.14;100.00
63281;BME280;49406;51.044;3.766;2023-05-29T04:56:03;102458.84;;;11.19;100.00
63281;BME280;49406;51.044;3.766;2023-05-29T04:58:38;102460.35;;;11.16;100.00
63281;BME280;49406;51.044;3.766;2023-05-29T05:01:12;102464.70;;;11.15;100.00
63281;BME280;49406;51.044;3.766;2023-05-29T05:03:47;102465.19;;;11.19;100.00
63281;BME280;49406;51.044;3.766;2023-05-29T05:06:22;102466.20;;;11.29;100.00
63281;BME280;49406;51.044;3.766;2023-05-29T05:08:58;102465.98;;;11.28;100.00
63281;BME280;49406;51.044;3.766;2023-05-29T05:11:33;102463.55;;;11.24;100.00
63281;BME280;49406;51.044;3.766;2023-05-29T05:14:07;102469.06;;;11.26;100.00
63281;BME280;49406;51.044;3.766;2023-05-29T05:16:42;102468.80;;;11.34;100.00
63281;BME280;49406;51.044;3.766;2023-05-29T05:19:16;102464.49;;;11.42;100.00
63281;BME280;49406;51.044;3.766;2023-05-29T05:21:51;102463.06;;;11.47;100.00
63281;BME280;49406;51.044;3.766;2023-05-29T05:24:26;102465.02;;;11.60;100.00
63281;BME280;49406;51.044;3.766;2023-05-29T05:27:00;102471.45;;;11.99;100.00
63281;BME280;49406;51.044;3.766;2023-05-29T05:29:36;102475.80;;;12.42;100.00
63281;BME280;49406;51.044;3.766;2023-05-29T05:32:13;102475.32;;;12.77;99.49
63281;BME280;49406;51.044;3.766;2023-05-29T05:34:48;102474.90;;;13.11;98.49
63281;BME280;49406;51.044;3.766;2023-05-29T05:37:22;102481.08;;;13.48;96.68
63281;BME280;49406;51.044;3.766;2023-05-29T05:39:57;102485.86;;;13.83;93.37
63281;BME280;49406;51.044;3.766;2023-05-29T05:42:34;102485.27;;;14.14;93.21
63281;BME280;49406;51.044;3.766;2023-05-29T05:45:10;102481.85;;;14.46;89.60
63281;BME280;49406;51.044;3.766;2023-05-29T05:47:45;102488.40;;;14.57;88.42
63281;BME280;49406;51.044;3.766;2023-05-29T05:50:20;102490.67;;;14.77;87.51
63281;BME280;49406;51.044;3.766;2023-05-29T05:52:55;102492.84;;;14.81;85.37
63281;BME280;49406;51.044;3.766;2023-05-29T05:55:29;102492.83;;;14.89;84.70
63281;BME280;49406;51.044;3.766;2023-05-29T05:58:04;102489.98;;;15.10;83.75
63281;BME280;49406;51.044;3.766;2023-05-29T06:00:38;102503.01;;;15.32;82.93
63281;BME280;49406;51.044;3.766;2023-05-29T06:03:13;102508.02;;;15.48;80.75
63281;BME280;49406;51.044;3.766;2023-05-29T06:05:48;102503.98;;;15.48;80.16
63281;BME280;49406;51.044;3.766;2023-05-29T06:08:26;102511.41;;;15.62;79.27
63281;BME280;49406;51.044;3.766;2023-05-29T06:11:00;102509.50;;;15.76;79.51
63281;BME280;49406;51.044;3.766;2023-05-29T06:13:35;102510.45;;;15.96;78.74
63281;BME280;49406;51.044;3.766;2023-05-29T06:16:11;102513.02;;;16.17;77.46
63281;BME280;49406;51.044;3.766;2023-05-29T06:18:46;102511.56;;;16.14;75.89
63281;BME280;49406;51.044;3.766;2023-05-29T06:21:21;102508.63;;;16.20;75.45
63281;BME280;49406;51.044;3.766;2023-05-29T06:23:56;102511.70;;;16.28;74.68
63281;BME280;49406;51.044;3.766;2023-05-29T06:26:30;102508.27;;;16.36;74.84
63281;BME280;49406;51.044;3.766;2023-05-29T06:29:05;102519.30;;;16.44;74.15
63281;BME280;49406;51.044;3.766;2023-05-29T06:31:40;102514.69;;;16.42;74.54
63281;BME280;49406;51.044;3.766;2023-05-29T06:34:15;102517.59;;;16.48;74.54
63281;BME280;49406;51.044;3.766;2023-05-29T06:36:49;102516.82;;;16.43;73.48
63281;BME280;49406;51.044;3.766;2023-05-29T06:39:24;102515.48;;;16.49;73.50
63281;BME280;49406;51.044;3.766;2023-05-29T06:41:58;102516.48;;;16.61;72.68
63281;BME280;49406;51.044;3.766;2023-05-29T06:44:34;102520.43;;;16.66;71.94
63281;BME280;49406;51.044;3.766;2023-05-29T06:47:08;102523.72;;;16.77;71.34
63281;BME280;49406;51.044;3.766;2023-05-29T06:49:43;102524.23;;;16.94;70.75
63281;BME280;49406;51.044;3.766;2023-05-29T06:52:17;102521.89;;;16.89;70.09
63281;BME280;49406;51.044;3.766;2023-05-29T06:54:52;102530.21;;;16.92;69.53
63281;BME280;49406;51.044;3.766;2023-05-29T06:57:27;102529.04;;;16.97;69.32
63281;BME280;49406;51.044;3.766;2023-05-29T07:00:02;102530.74;;;16.92;69.12
63281;BME280;49406;51.044;3.766;2023-05-29T07:02:39;102529.81;;;16.86;68.53
63281;BME280;49406;51.044;3.766;2023-05-29T07:05:13;102525.30;;;16.94;68.68
63281;BME280;49406;51.044;3.766;2023-05-29T07:07:48;102522.94;;;17.09;67.45
63281;BME280;49406;51.044;3.766;2023-05-29T07:10:23;102529.23;;;16.99;66.90
63281;BME280;49406;51.044;3.766;2023-05-29T07:12:57;102528.04;;;17.05;66.97
63281;BME280;49406;51.044;3.766;2023-05-29T07:15:32;102527.69;;;17.05;66.53
63281;BME280;49406;51.044;3.766;2023-05-29T07:18:07;102524.08;;;17.18;66.58
63281;BME280;49406;51.044;3.766;2023-05-29T07:20:41;102525.62;;;17.36;65.93
63281;BME280;49406;51.044;3.766;2023-05-29T07:23:16;102529.44;;;17.50;66.01
63281;BME280;49406;51.044;3.766;2023-05-29T07:25:51;102529.55;;;17.68;65.15
63281;BME280;49406;51.044;3.766;2023-05-29T07:28:25;102523.30;;;17.87;64.04
63281;BME280;49406;51.044;3.766;2023-05-29T07:31:00;102523.48;;;17.85;64.03
63281;BME280;49406;51.044;3.766;2023-05-29T07:33:34;102528.54;;;18.11;64.55
63281;BME280;49406;51.044;3.766;2023-05-29T07:36:09;102531.44;;;18.31;62.98
63281;BME280;49406;51.044;3.766;2023-05-29T07:38:44;102530.95;;;18.50;62.69
63281;BME280;49406;51.044;3.766;2023-05-29T07:41:18;102529.52;;;18.47;61.14
63281;BME280;49406;51.044;3.766;2023-05-29T07:43:53;102525.21;;;18.24;61.69
63281;BME280;49406;51.044;3.766;2023-05-29T07:46:28;102526.67;;;18.36;61.32
63281;BME280;49406;51.044;3.766;2023-05-29T07:49:03;102526.34;;;18.46;60.73
63281;BME280;49406;51.044;3.766;2023-05-29T07:51:37;102522.81;;;18.51;60.95
63281;BME280;49406;51.044;3.766;2023-05-29T07:54:12;102523.48;;;18.31;60.53
63281;BME280;49406;51.044;3.766;2023-05-29T07:56:50;102519.77;;;18.42;61.27
63281;BME280;49406;51.044;3.766;2023-05-29T07:59:25;102523.74;;;18.63;60.79
63281;BME280;49406;51.044;3.766;2023-05-29T08:02:00;102520.40;;;18.72;59.91
63281;BME280;49406;51.044;3.766;2023-05-29T08:04:36;102524.66;;;18.83;59.87
63281;BME280;49406;51.044;3.766;2023-05-29T08:07:10;102533.34;;;18.97;59.14
63281;BME280;49406;51.044;3.766;2023-05-29T08:09:45;102529.27;;;19.07;58.80
63281;BME280;49406;51.044;3.766;2023-05-29T08:12:20;102530.31;;;19.33;58.64
63281;BME280;49406;51.044;3.766;2023-05-29T08:14:54;102535.62;;;19.43;57.90
63281;BME280;49406;51.044;3.766;2023-05-29T08:17:29;102535.98;;;19.47;57.17
63281;BME280;49406;51.044;3.766;2023-05-29T08:20:04;102536.52;;;19.40;57.23
63281;BME280;49406;51.044;3.766;2023-05-29T08:22:42;102531.01;;;19.52;56.13
63281;BME280;49406;51.044;3.766;2023-05-29T08:25:16;102529.41;;;19.44;55.79
63281;BME280;49406;51.044;3.766;2023-05-29T08:27:51;102529.96;;;19.37;56.03
63281;BME280;49406;51.044;3.766;2023-05-29T08:30:25;102528.72;;;19.31;55.68
63281;BME280;49406;51.044;3.766;2023-05-29T08:33:00;102532.27;;;19.33;56.24
63281;BME280;49406;51.044;3.766;2023-05-29T08:35:34;102538.45;;;19.45;56.34
63281;BME280;49406;51.044;3.766;2023-05-29T08:38:09;102543.60;;;19.40;55.63
63281;BME280;49406;51.044;3.766;2023-05-29T08:40:44;102541.15;;;19.19;55.10
63281;BME280;49406;51.044;3.766;2023-05-29T08:43:22;102537.95;;;19.00;55.79
63281;BME280;49406;51.044;3.766;2023-05-29T08:46:00;102541.32;;;19.03;56.70
63281;BME280;49406;51.044;3.766;2023-05-29T08:48:38;102551.25;;;19.16;56.37
63281;BME280;49406;51.044;3.766;2023-05-29T08:51:14;102551.08;;;19.27;56.26
63281;BME280;49406;51.044;3.766;2023-05-29T08:53:50;102558.88;;;19.27;55.03
63281;BME280;49406;51.044;3.766;2023-05-29T08:56:25;102560.11;;;19.29;55.46
63281;BME280;49406;51.044;3.766;2023-05-29T08:59:00;102560.63;;;19.40;55.04
63281;BME280;49406;51.044;3.766;2023-05-29T09:01:35;102565.60;;;19.44;55.57
63281;BME280;49406;51.044;3.766;2023-05-29T09:04:12;102561.52;;;19.49;55.22
63281;BME280;49406;51.044;3.766;2023-05-29T09:06:47;102555.13;;;19.68;55.35
63281;BME280;49406;51.044;3.766;2023-05-29T09:09:21;102567.69;;;19.82;54.26
63281;BME280;49406;51.044;3.766;2023-05-29T09:11:57;102568.56;;;19.84;54.38
63281;BME280;49406;51.044;3.766;2023-05-29T09:14:35;102562.30;;;19.97;53.61
63281;BME280;49406;51.044;3.766;2023-05-29T09:17:12;102567.80;;;20.04;53.55
63281;BME280;49406;51.044;3.766;2023-05-29T09:19:52;102568.28;;;20.10;53.31
63281;BME280;49406;51.044;3.766;2023-05-29T09:22:26;102569.74;;;20.04;53.21
63281;BME280;49406;51.044;3.766;2023-05-29T09:25:01;102571.27;;;20.20;54.31
63281;BME280;49406;51.044;3.766;2023-05-29T09:27:39;102577.08;;;20.36;52.34
63281;BME280;49406;51.044;3.766;2023-05-29T09:30:32;102572.18;;;20.19;53.02
63281;BME280;49406;51.044;3.766;2023-05-29T09:33:09;102564.85;;;20.26;53.38
63281;BME280;49406;51.044;3.766;2023-05-29T09:35:45;102579.55;;;20.38;52.85
63281;BME280;49406;51.044;3.766;2023-05-29T09:38:21;102569.29;;;20.28;52.88
63281;BME280;49406;51.044;3.766;2023-05-29T09:40:55;102566.94;;;20.35;54.17
63281;BME280;49406;51.044;3.766;2023-05-29T09:43:39;102570.11;;;20.45;53.28
63281;BME280;49406;51.044;3.766;2023-05-29T09:46:18;102571.88;;;20.48;53.85
63281;BME280;49406;51.044;3.766;2023-05-29T09:48:52;102569.17;;;20.57;52.81
63281;BME280;49406;51.044;3.766;2023-05-29T09:51:27;102573.14;;;20.44;52.53
63281;BME280;49406;51.044;3.766;2023-05-29T09:54:14;102566.96;;;20.32;52.61
63281;BME280;49406;51.044;3.766;2023-05-29T09:56:49;102572.34;;;20.20;52.87
63281;BME280;49406;51.044;3.766;2023-05-29T09:59:25;102572.22;;;20.07;53.38
63281;BME280;49406;51.044;3.766;2023-05-29T10:02:02;102567.23;;;20.12;53.52
63281;BME280;49406;51.044;3.766;2023-05-29T10:04:38;102569.47;;;20.25;53.42
63281;BME280;49406;51.044;3.766;2023-05-29T10:07:25;102564.78;;;20.47;53.58
63281;BME280;49406;51.044;3.766;2023-05-29T10:10:03;102571.15;;;20.53;52.47
63281;BME280;49406;51.044;3.766;2023-05-29T10:12:41;102570.99;;;20.49;52.31
63281;BME280;49406;51.044;3.766;2023-05-29T10:15:18;102567.05;;;20.54;52.57
63281;BME280;49406;51.044;3.766;2023-05-29T10:17:56;102574.90;;;20.78;52.47
63281;BME280;49406;51.044;3.766;2023-05-29T10:20:33;102560.58;;;20.91;51.69
63281;BME280;49406;51.044;3.766;2023-05-29T10:23:09;102563.13;;;21.07;52.14
63281;BME280;49406;51.044;3.766;2023-05-29T10:25:46;102575.15;;;20.92;50.98
63281;BME280;49406;51.044;3.766;2023-05-29T10:28:25;102568.58;;;20.66;50.79
63281;BME280;49406;51.044;3.766;2023-05-29T10:31:05;102572.70;;;20.59;51.96
63281;BME280;49406;51.044;3.766;2023-05-29T10:33:56;102567.49;;;20.69;50.96
63281;BME280;49406;51.044;3.766;2023-05-29T10:36:38;102557.44;;;20.82;50.96
63281;BME280;49406;51.044;3.766;2023-05-29T10:39:15;102565.75;;;20.90;50.36
63281;BME280;49406;51.044;3.766;2023-05-29T10:41:50;102561.41;;;20.99;50.32
63281;BME280;49406;51.044;3.766;2023-05-29T10:44:40;102558.34;;;21.04;50.45
63281;BME280;49406;51.044;3.766;2023-05-29T10:47:24;102559.47;;;20.97;50.31
63281;BME280;49406;51.044;3.766;2023-05-29T10:49:59;102557.73;;;21.11;50.26
63281;BME280;49406;51.044;3.766;2023-05-29T10:52:34;102553.92;;;21.23;49.54
63281;BME280;49406;51.044;3.766;2023-05-29T10:55:11;102555.05;;;21.15;48.62
63281;BME280;49406;51.044;3.766;2023-05-29T10:57:49;102556.58;;;21.04;49.72
63281;BME280;49406;51.044;3.766;2023-05-29T11:00:24;102562.44;;;21.04;49.91
63281;BME280;49406;51.044;3.766;2023-05-29T11:03:03;102554.31;;;21.19;49.89
63281;BME280;49406;51.044;3.766;2023-05-29T11:05:57;102540.85;;;21.35;49.15
63281;BME280;49406;51.044;3.766;2023-05-29T11:08:36;102541.77;;;21.31;48.32
63281;BME280;49406;51.044;3.766;2023-05-29T11:11:30;102542.29;;;21.34;48.55
63281;BME280;49406;51.044;3.766;2023-05-29T11:14:06;102533.59;;;21.31;48.78
63281;BME280;49406;51.044;3.766;2023-05-29T11:16:41;102537.14;;;21.50;48.45
63281;BME280;49406;51.044;3.766;2023-05-29T11:19:16;102533.16;;;21.71;48.66
63281;BME280;49406;51.044;3.766;2023-05-29T11:22:04;102532.11;;;21.86;47.43
63281;BME280;49406;51.044;3.766;2023-05-29T11:24:42;102534.80;;;21.98;47.32
63281;BME280;49406;51.044;3.766;2023-05-29T11:27:17;102530.81;;;22.07;46.90
63281;BME280;49406;51.044;3.766;2023-05-29T11:29:53;102541.64;;;21.93;46.62
63281;BME280;49406;51.044;3.766;2023-05-29T11:32:29;102540.23;;;22.06;46.86
63281;BME280;49406;51.044;3.766;2023-05-29T11:35:09;102536.95;;;22.13;46.64
63281;BME280;49406;51.044;3.766;2023-05-29T11:37:45;102542.86;;;21.94;46.47
63281;BME280;49406;51.044;3.766;2023-05-29T11:40:20;102537.73;;;21.92;46.24
63281;BME280;49406;51.044;3.766;2023-05-29T11:42:55;102535.89;;;21.82;46.97
63281;BME280;49406;51.044;3.766;2023-05-29T11:45:33;102537.02;;;22.08;46.71
63281;BME280;49406;51.044;3.766;2023-05-29T11:48:08;102528.25;;;22.11;47.07
63281;BME280;49406;51.044;3.766;2023-05-29T11:50:43;102533.20;;;22.28;46.96
63281;BME280;49406;51.044;3.766;2023-05-29T11:53:17;102536.58;;;22.41;46.92
63281;BME280;49406;51.044;3.766;2023-05-29T11:55:53;102528.75;;;22.40;46.18
63281;BME280;49406;51.044;3.766;2023-05-29T11:58:40;102532.76;;;22.34;46.80
63281;BME280;49406;51.044;3.766;2023-05-29T12:01:17;102529.89;;;22.60;46.38
63281;BME280;49406;51.044;3.766;2023-05-29T12:03:54;102530.63;;;22.58;46.01
63281;BME280;49406;51.044;3.766;2023-05-29T12:06:35;102530.84;;;22.44;45.63
63281;BME280;49406;51.044;3.766;2023-05-29T12:09:24;102522.08;;;22.21;46.11
63281;BME280;49406;51.044;3.766;2023-05-29T12:12:04;102524.86;;;22.38;47.44
63281;BME280;49406;51.044;3.766;2023-05-29T12:14:39;102521.46;;;22.51;45.85
63281;BME280;49406;51.044;3.766;2023-05-29T12:17:14;102521.70;;;22.35;46.33
63281;BME280;49406;51.044;3.766;2023-05-29T12:19:48;102515.06;;;22.50;46.66
63281;BME280;49406;51.044;3.766;2023-05-29T12:22:33;102516.64;;;22.51;45.95
63281;BME280;49406;51.044;3.766;2023-05-29T12:25:11;102510.02;;;22.54;46.14
63281;BME280;49406;51.044;3.766;2023-05-29T12:27:47;102509.46;;;22.55;45.43
63281;BME280;49406;51.044;3.766;2023-05-29T12:30:22;102511.60;;;22.43;45.07
63281;BME280;49406;51.044;3.766;2023-05-29T12:32:57;102523.39;;;22.29;45.47
63281;BME280;49406;51.044;3.766;2023-05-29T12:35:33;102517.63;;;22.08;46.39
63281;BME280;49406;51.044;3.766;2023-05-29T12:38:08;102517.39;;;21.95;46.87
63281;BME280;49406;51.044;3.766;2023-05-29T12:40:49;102520.59;;;21.95;47.61
63281;BME280;49406;51.044;3.766;2023-05-29T12:43:24;102523.38;;;21.99;47.50
63281;BME280;49406;51.044;3.766;2023-05-29T12:45:59;102520.20;;;21.98;46.90
63281;BME280;49406;51.044;3.766;2023-05-29T12:48:33;102517.03;;;21.81;46.91
63281;BME280;49406;51.044;3.766;2023-05-29T12:51:08;102512.29;;;21.76;47.45
63281;BME280;49406;51.044;3.766;2023-05-29T12:53:43;102527.11;;;21.87;47.29
63281;BME280;49406;51.044;3.766;2023-05-29T12:56:18;102523.36;;;21.72;46.83
63281;BME280;49406;51.044;3.766;2023-05-29T12:58:53;102512.13;;;21.59;47.49
63281;BME280;49406;51.044;3.766;2023-05-29T13:01:27;102519.21;;;21.77;47.99
63281;BME280;49406;51.044;3.766;2023-05-29T13:04:02;102515.77;;;21.97;47.66
63281;BME280;49406;51.044;3.766;2023-05-29T13:06:38;102524.25;;;22.18;46.72
63281;BME280;49406;51.044;3.766;2023-05-29T13:09:13;102526.93;;;22.02;46.15
63281;BME280;49406;51.044;3.766;2023-05-29T13:11:48;102528.23;;;22.12;45.63
63281;BME280;49406;51.044;3.766;2023-05-29T13:14:23;102525.36;;;22.14;44.95
63281;BME280;49406;51.044;3.766;2023-05-29T13:16:57;102520.64;;;22.21;44.44
63281;BME280;49406;51.044;3.766;2023-05-29T13:19:32;102514.81;;;22.42;44.12
63281;BME280;49406;51.044;3.766;2023-05-29T13:22:07;102520.96;;;22.61;43.58
63281;BME280;49406;51.044;3.766;2023-05-29T13:24:42;102520.61;;;22.48;42.98
63281;BME280;49406;51.044;3.766;2023-05-29T13:27:16;102515.45;;;22.48;42.55
63281;BME280;49406;51.044;3.766;2023-05-29T13:29:51;102518.44;;;22.50;42.57